Time;durP1;ratioP1;P1;durP2;ratioP2;P2;SDS_P1;SDS_P2;PMS_P1;PMS_P2;Temp;Humidity;BMP_temperature;BMP_pressure;BME280_temperature;BME280_humidity;BME280_pressure;Samples;Min_cycle;Max_cycle;Signal;HPM_P1;HPM_P2
2022/06/08 00:02:17;;;;;;;3.83;3.17;;;11.50;99.90;;;;;;4975731;28;20046;-75
2022/06/08 00:04:43;;;;;;;5.53;4.93;;;11.60;99.90;;;;;;4999049;28;20046;-75
2022/06/08 00:07:09;;;;;;;4.68;3.70;;;11.60;99.90;;;;;;4965949;28;20755;-75
2022/06/08 00:09:35;;;;;;;4.30;3.80;;;11.70;99.90;;;;;;4978254;28;20046;-75
2022/06/08 00:12:02;;;;;;;3.72;3.42;;;11.70;99.90;;;;;;4984019;28;20041;-75
2022/06/08 00:14:28;;;;;;;6.38;3.08;;;11.70;99.90;;;;;;4983172;28;20047;-75
2022/06/08 00:16:54;;;;;;;8.27;3.47;;;11.80;99.90;;;;;;4983484;28;20041;-75
2022/06/08 00:19:19;;;;;;;9.10;3.63;;;11.70;99.90;;;;;;4983676;28;20153;-75
2022/06/08 00:21:45;;;;;;;9.38;3.53;;;11.70;99.90;;;;;;4983462;28;20042;-75
2022/06/08 00:24:10;;;;;;;3.75;3.03;;;11.70;99.90;;;;;;4983887;28;20035;-76
2022/06/08 00:26:36;;;;;;;4.25;3.85;;;11.70;99.90;;;;;;4984160;28;20046;-75
2022/06/08 00:29:03;;;;;;;3.85;3.50;;;11.70;99.90;;;;;;4983208;28;20046;-75
2022/06/08 00:31:29;;;;;;;6.05;4.05;;;11.70;99.90;;;;;;4982779;28;20308;-75
2022/06/08 00:33:55;;;;;;;9.23;3.42;;;11.70;99.90;;;;;;4983372;28;20038;-75
2022/06/08 00:36:20;;;;;;;3.70;3.35;;;11.70;99.90;;;;;;4983993;28;20559;-76
2022/06/08 00:38:46;;;;;;;4.18;3.88;;;11.60;99.90;;;;;;4983228;28;20046;-75
2022/06/08 00:41:48;;;;;;;6.47;4.53;;;11.60;99.90;;;;;;4983449;28;20042;-75
2022/06/08 00:44:28;;;;;;;4.20;3.42;;;11.60;99.90;;;;;;4980769;28;20062;-75
2022/06/08 00:46:54;;;;;;;5.30;3.85;;;11.60;99.90;;;;;;4978053;28;20074;-75
2022/06/08 00:49:38;;;;;;;3.90;3.60;;;11.50;99.90;;;;;;4983469;28;20539;-75
2022/06/08 00:52:05;;;;;;;6.63;4.30;;;11.50;99.90;;;;;;4982910;28;20061;-75
2022/06/08 00:54:34;;;;;;;4.28;3.95;;;11.50;99.90;;;;;;4983527;28;20130;-75
2022/06/08 00:57:14;;;;;;;7.07;5.53;;;11.50;99.90;;;;;;4973712;28;20536;-75
2022/06/08 00:59:49;;;;;;;5.40;4.90;;;11.50;99.90;;;;;;4962946;28;20050;-75
2022/06/08 01:02:15;;;;;;;8.65;5.15;;;11.50;99.90;;;;;;4967047;28;20042;-75
2022/06/08 01:04:41;;;;;;;5.70;4.43;;;11.40;99.90;;;;;;4983123;28;20042;-75
2022/06/08 01:07:07;;;;;;;5.78;5.20;;;11.40;99.90;;;;;;4983316;28;20058;-75
2022/06/08 01:09:38;;;;;;;5.28;4.80;;;11.40;99.90;;;;;;4982352;28;20039;-75
2022/06/08 01:12:19;;;;;;;9.05;5.82;;;11.40;99.90;;;;;;4979369;28;20039;-75
2022/06/08 01:14:48;;;;;;;5.57;5.03;;;11.40;99.90;;;;;;4963163;28;20094;-75
2022/06/08 01:17:17;;;;;;;4.05;3.75;;;11.40;99.90;;;;;;4982479;28;20034;-75
2022/06/08 01:19:46;;;;;;;6.38;4.80;;;11.50;99.90;;;;;;4982718;28;20046;-75
2022/06/08 01:22:14;;;;;;;10.20;6.03;;;11.50;99.90;;;;;;4979278;28;20054;-75
2022/06/08 01:24:42;;;;;;;6.65;5.05;;;11.50;99.90;;;;;;4969884;28;20038;-75
2022/06/08 01:27:16;;;;;;;5.63;5.07;;;11.50;99.90;;;;;;4982836;28;20408;-75
2022/06/08 01:29:53;;;;;;;6.20;4.63;;;11.50;99.90;;;;;;4967649;28;20042;-75
2022/06/08 01:32:43;;;;;;;10.10;4.40;;;11.50;99.90;;;;;;4967026;28;20460;-75
2022/06/08 01:35:26;;;;;;;5.10;4.38;;;11.40;99.90;;;;;;4982165;28;20133;-75
2022/06/08 01:38:16;;;;;;;5.60;5.13;;;11.40;99.90;;;;;;4982580;28;20309;-75
2022/06/08 01:41:18;;;;;;;5.65;5.00;;;11.50;99.90;;;;;;4966326;28;20042;-75
2022/06/08 01:43:57;;;;;;;6.10;4.13;;;11.50;99.90;;;;;;4975125;28;20046;-75
2022/06/08 01:47:01;;;;;;;6.80;4.93;;;11.50;99.90;;;;;;4980893;28;20061;-75
2022/06/08 01:49:40;;;;;;;5.10;4.47;;;11.50;99.90;;;;;;4947804;28;20090;-75
2022/06/08 01:52:41;;;;;;;5.00;4.43;;;11.60;99.90;;;;;;4980528;28;20104;-75
2022/06/08 01:55:18;;;;;;;10.23;5.90;;;11.60;99.90;;;;;;4972456;28;20105;-75
2022/06/08 01:57:57;;;;;;;7.28;6.07;;;11.60;99.90;;;;;;4981563;28;20076;-75
2022/06/08 02:00:30;;;;;;;4.93;4.43;;;11.60;99.90;;;;;;4961893;28;20464;-75
2022/06/08 02:03:00;;;;;;;;;;;11.60;99.90;;;;;;4972403;28;20082;-75
2022/06/08 02:06:01;;;;;;;5.38;4.95;;;11.60;99.90;;;;;;4982196;28;20398;-75
2022/06/08 02:08:50;;;;;;;8.65;5.53;;;11.60;99.90;;;;;;4966480;28;20101;-75
2022/06/08 02:11:16;;;;;;;6.03;5.43;;;11.60;99.90;;;;;;4981553;28;20107;-75
2022/06/08 02:13:50;;;;;;;5.55;4.95;;;11.60;99.90;;;;;;4971444;28;20046;-75
2022/06/08 02:16:22;;;;;;;8.38;5.65;;;11.50;99.90;;;;;;4960156;28;20489;-75
2022/06/08 02:18:56;;;;;;;6.60;5.97;;;11.50;99.90;;;;;;4982102;28;20038;-75
2022/06/08 02:21:31;;;;;;;8.02;6.28;;;11.50;99.90;;;;;;4981598;28;20042;-75
2022/06/08 02:24:05;;;;;;;5.55;5.05;;;11.40;99.90;;;;;;4982193;28;20078;-75
2022/06/08 02:26:38;;;;;;;7.95;5.50;;;11.40;99.90;;;;;;4981672;28;20038;-75
2022/06/08 02:29:15;;;;;;;4.80;4.40;;;11.40;99.90;;;;;;4980563;28;20042;-75
2022/06/08 02:31:49;;;;;;;6.28;5.63;;;11.40;99.90;;;;;;4982088;28;20053;-75
2022/06/08 02:34:31;;;;;;;4.60;4.00;;;11.40;99.90;;;;;;4981377;28;20046;-75
2022/06/08 02:37:17;;;;;;;5.53;5.03;;;11.40;99.90;;;;;;4982561;28;20129;-75
2022/06/08 02:39:51;;;;;;;6.30;5.45;;;11.30;99.90;;;;;;4981568;28;20050;-75
2022/06/08 02:42:27;;;;;;;7.55;4.70;;;11.30;99.90;;;;;;4981273;28;20078;-75
2022/06/08 02:44:57;;;;;;;6.57;4.55;;;11.30;99.90;;;;;;4968460;28;20101;-75
2022/06/08 02:47:30;;;;;;;5.85;5.25;;;11.30;99.90;;;;;;4970917;28;20092;-75
2022/06/08 02:49:59;;;;;;;5.45;4.45;;;11.30;99.90;;;;;;4976461;28;20046;-75
2022/06/08 02:52:27;;;;;;;7.38;5.40;;;11.30;99.90;;;;;;4981233;28;20049;-75
2022/06/08 02:54:54;;;;;;;8.80;5.55;;;11.30;99.90;;;;;;4981629;28;20057;-75
2022/06/08 02:57:29;;;;;;;7.65;4.88;;;11.30;99.90;;;;;;4999312;28;20030;-75
2022/06/08 03:00:05;;;;;;;7.95;5.65;;;11.30;99.90;;;;;;4984265;28;20042;-75
2022/06/08 03:02:39;;;;;;;6.50;4.85;;;11.20;99.90;;;;;;4985402;28;20050;-75
2022/06/08 03:05:38;;;;;;;5.85;5.35;;;11.20;99.90;;;;;;4969064;28;20091;-75
2022/06/08 03:08:15;;;;;;;8.35;5.25;;;11.20;99.90;;;;;;4997874;28;20058;-75
2022/06/08 03:10:43;;;;;;;11.77;5.72;;;11.30;99.90;;;;;;4978069;28;20122;-75
2022/06/08 03:13:18;;;;;;;6.72;5.57;;;11.30;99.90;;;;;;4973490;28;20108;-75
2022/06/08 03:15:52;;;;;;;7.97;5.80;;;11.30;99.90;;;;;;4984687;28;20034;-75
2022/06/08 03:18:18;;;;;;;7.30;6.53;;;11.30;99.90;;;;;;4984823;28;20038;-75
2022/06/08 03:20:44;;;;;;;7.18;6.32;;;11.40;99.90;;;;;;4985287;28;20049;-75
2022/06/08 03:23:09;;;;;;;9.15;6.50;;;11.40;99.90;;;;;;4984559;28;20048;-75
2022/06/08 03:25:38;;;;;;;6.93;6.32;;;11.50;99.90;;;;;;4985289;28;20050;-75
2022/06/08 03:28:04;;;;;;;8.32;7.05;;;11.40;99.90;;;;;;4984774;28;20076;-75
2022/06/08 03:30:31;;;;;;;6.07;5.47;;;11.50;99.90;;;;;;4974979;28;20066;-75
2022/06/08 03:32:57;;;;;;;8.63;6.32;;;11.50;99.90;;;;;;4978321;28;20046;-75
2022/06/08 03:35:22;;;;;;;10.63;7.70;;;11.50;99.90;;;;;;4984271;28;20074;-75
2022/06/08 03:37:49;;;;;;;12.15;7.93;;;11.50;99.90;;;;;;4965515;28;20070;-75
2022/06/08 03:40:16;;;;;;;7.97;7.10;;;11.50;99.90;;;;;;4979674;28;20476;-75
2022/06/08 03:42:42;;;;;;;13.68;7.45;;;11.60;99.90;;;;;;4965634;28;20129;-75
2022/06/08 03:45:09;;;;;;;10.38;7.78;;;11.60;99.90;;;;;;4971699;28;20199;-76
2022/06/08 03:47:42;;;;;;;11.25;7.60;;;11.60;99.90;;;;;;4983660;28;20065;-75
2022/06/08 03:50:13;;;;;;;8.27;7.45;;;11.60;99.90;;;;;;4968319;28;20042;-75
2022/06/08 03:52:46;;;;;;;8.88;7.97;;;11.60;99.90;;;;;;4964129;28;20102;-75
2022/06/08 03:55:12;;;;;;;12.52;8.45;;;11.60;99.90;;;;;;4979833;28;20057;-75
2022/06/08 03:57:41;;;;;;;10.45;9.35;;;11.70;99.90;;;;;;4983231;28;20041;-75
2022/06/08 04:00:08;;;;;;;10.50;7.63;;;11.70;99.90;;;;;;4982910;28;20045;-75
2022/06/08 04:02:34;;;;;;;15.80;9.50;;;11.70;99.90;;;;;;4998519;28;20038;-75
2022/06/08 04:04:59;;;;;;;13.13;8.20;;;11.70;99.90;;;;;;4984824;28;20424;-75
2022/06/08 04:07:25;;;;;;;10.27;8.63;;;11.80;99.90;;;;;;4982940;28;20050;-75
2022/06/08 04:09:51;;;;;;;15.20;9.05;;;11.80;99.90;;;;;;4984082;28;20077;-75
2022/06/08 04:12:22;;;;;;;11.68;8.65;;;11.80;99.90;;;;;;4984122;28;20077;-76
2022/06/08 04:14:48;;;;;;;10.80;9.70;;;11.90;99.90;;;;;;4982863;28;20602;-75
2022/06/08 04:17:14;;;;;;;9.30;8.35;;;11.90;99.90;;;;;;4983515;28;20050;-75
2022/06/08 04:19:40;;;;;;;14.93;10.98;;;11.90;99.90;;;;;;4984006;28;20034;-75
2022/06/08 04:22:05;;;;;;;14.20;9.05;;;12.00;99.90;;;;;;4983084;28;20041;-75
2022/06/08 04:24:31;;;;;;;11.35;9.77;;;12.00;99.90;;;;;;4974863;28;20067;-75
2022/06/08 04:26:57;;;;;;;16.25;9.80;;;11.90;99.90;;;;;;4975770;28;20030;-76
2022/06/08 04:29:22;;;;;;;11.60;9.07;;;11.90;99.90;;;;;;4981212;28;20077;-76
2022/06/08 04:31:48;;;;;;;10.90;9.40;;;12.00;99.90;;;;;;4964769;28;20396;-75
2022/06/08 04:34:15;;;;;;;11.50;8.77;;;12.00;99.90;;;;;;4981594;28;20484;-76
2022/06/08 04:36:41;;;;;;;11.23;8.45;;;12.10;99.90;;;;;;4984054;28;20045;-75
2022/06/08 04:39:09;;;;;;;12.98;10.38;;;12.10;99.90;;;;;;4983336;28;20082;-75
2022/06/08 04:41:39;;;;;;;12.75;9.98;;;12.10;99.90;;;;;;4981386;28;20053;-76
2022/06/08 04:44:05;;;;;;;13.77;9.30;;;12.20;99.90;;;;;;4982764;28;20057;-75
2022/06/08 04:46:31;;;;;;;11.27;8.35;;;12.20;99.90;;;;;;4982764;28;20677;-75
2022/06/08 04:48:57;;;;;;;12.05;10.07;;;12.20;99.90;;;;;;4998589;28;20120;-75
2022/06/08 04:51:23;;;;;;;14.40;10.38;;;12.30;99.90;;;;;;4983082;28;20493;-76
2022/06/08 04:53:49;;;;;;;15.40;10.32;;;12.30;99.90;;;;;;4982815;28;20180;-75
2022/06/08 04:56:15;;;;;;;13.55;10.55;;;12.30;99.90;;;;;;4982880;28;20057;-75
2022/06/08 04:58:41;;;;;;;13.77;11.05;;;12.40;99.90;;;;;;4978748;28;20039;-75
2022/06/08 05:01:07;;;;;;;12.70;10.88;;;12.50;99.90;;;;;;4963662;28;20050;-75
2022/06/08 05:03:33;;;;;;;14.07;11.82;;;12.50;99.90;;;;;;4973808;28;20054;-75
2022/06/08 05:06:00;;;;;;;14.30;10.88;;;12.50;99.90;;;;;;4983122;28;20141;-75
2022/06/08 05:08:26;;;;;;;19.73;13.43;;;12.60;99.90;;;;;;4983602;28;20092;-75
2022/06/08 05:10:54;;;;;;;16.77;11.57;;;12.70;99.90;;;;;;4980394;28;20047;-75
2022/06/08 05:13:21;;;;;;;14.45;11.55;;;12.70;99.90;;;;;;4969911;28;20055;-76
2022/06/08 05:15:48;;;;;;;17.60;13.18;;;12.70;99.90;;;;;;4981715;28;20105;-76
2022/06/08 05:18:16;;;;;;;16.65;12.93;;;12.80;99.90;;;;;;4997047;28;20425;-76
2022/06/08 05:20:43;;;;;;;14.10;12.02;;;12.90;99.90;;;;;;4981912;28;20047;-76
2022/06/08 05:23:14;;;;;;;16.65;13.40;;;13.00;99.90;;;;;;4997219;28;20046;-76
2022/06/08 05:25:42;;;;;;;14.95;12.15;;;13.00;99.90;;;;;;4982713;28;20096;-76
2022/06/08 05:28:08;;;;;;;19.90;14.50;;;13.10;99.90;;;;;;4997429;28;20039;-76
2022/06/08 05:30:36;;;;;;;14.57;12.18;;;13.20;99.90;;;;;;4978706;28;20050;-76
2022/06/08 05:33:03;;;;;;;18.35;13.80;;;13.20;99.90;;;;;;4969998;28;20417;-76
2022/06/08 05:35:30;;;;;;;18.60;14.00;;;13.20;99.90;;;;;;4981817;28;20042;-76
2022/06/08 05:37:56;;;;;;;18.38;14.07;;;13.30;99.90;;;;;;4982617;28;20400;-76
2022/06/08 05:40:22;;;;;;;19.10;13.70;;;13.30;99.90;;;;;;4964277;28;20130;-76
2022/06/08 05:42:48;;;;;;;18.88;14.88;;;13.40;99.90;;;;;;4968776;28;20118;-76
2022/06/08 05:45:24;;;;;;;15.13;13.57;;;13.50;99.90;;;;;;4978334;28;20050;-75
2022/06/08 05:47:51;;;;;;;16.65;13.20;;;13.50;99.90;;;;;;4991323;28;20378;-76
2022/06/08 05:50:18;;;;;;;24.65;13.60;;;13.60;99.90;;;;;;4975340;28;20575;-76
2022/06/08 05:52:43;;;;;;;23.05;13.32;;;13.60;99.90;;;;;;4970013;28;20382;-78
2022/06/08 05:55:09;;;;;;;19.00;12.77;;;13.70;99.90;;;;;;4973507;28;20125;-78
2022/06/08 05:57:36;;;;;;;17.70;13.50;;;13.70;99.90;;;;;;4981348;28;20697;-76
2022/06/08 06:00:07;;;;;;;17.02;14.25;;;13.80;99.90;;;;;;4961528;28;20127;-76
2022/06/08 06:02:32;;;;;;;30.13;16.13;;;13.90;99.90;;;;;;4967856;28;20077;-76
2022/06/08 06:04:58;;;;;;;23.38;13.40;;;13.90;99.90;;;;;;4981996;28;20046;-76
2022/06/08 06:07:25;;;;;;;21.67;13.45;;;13.90;99.90;;;;;;4980688;28;20614;-76
2022/06/08 06:09:51;;;;;;;16.48;12.07;;;14.00;99.90;;;;;;4981565;28;20851;-76
2022/06/08 06:12:17;;;;;;;21.38;13.02;;;14.00;99.90;;;;;;4980452;28;20050;-76
2022/06/08 06:14:43;;;;;;;17.38;13.18;;;14.10;99.90;;;;;;4980125;28;20096;-76
2022/06/08 06:17:08;;;;;;;17.40;13.23;;;14.10;99.90;;;;;;4981653;28;20412;-76
2022/06/08 06:19:34;;;;;;;22.52;11.95;;;14.10;99.90;;;;;;4980424;28;20035;-76
2022/06/08 06:22:01;;;;;;;16.90;12.85;;;14.20;99.90;;;;;;4977212;28;20133;-77
2022/06/08 06:24:27;;;;;;;17.52;12.98;;;14.30;99.90;;;;;;4978884;28;20480;-77
2022/06/08 06:26:53;;;;;;;17.98;11.98;;;14.40;99.90;;;;;;4976981;28;20043;-77
2022/06/08 06:29:19;;;;;;;15.02;11.32;;;14.40;99.90;;;;;;4980763;28;20393;-77
2022/06/08 06:31:51;;;;;;;22.00;14.25;;;14.50;99.90;;;;;;4981263;28;20054;-77
2022/06/08 06:34:18;;;;;;;;;;;14.60;99.90;;;;;;4981737;28;20078;-78
2022/06/08 06:36:44;;;;;;;15.00;11.88;;;14.60;99.90;;;;;;4981533;28;20233;-78
2022/06/08 06:39:10;;;;;;;17.52;12.05;;;14.70;99.90;;;;;;4979303;28;20436;-77
2022/06/08 06:41:37;;;;;;;17.15;12.55;;;14.80;99.90;;;;;;4980356;28;20088;-77
2022/06/08 06:44:04;;;;;;;13.95;10.45;;;14.80;99.90;;;;;;4978880;28;20118;-77
2022/06/08 06:46:30;;;;;;;13.27;10.27;;;14.90;99.90;;;;;;4995142;28;20039;-77
2022/06/08 06:48:55;;;;;;;16.80;9.48;;;15.00;99.90;;;;;;4980355;28;20047;-78
2022/06/08 06:51:21;;;;;;;14.55;9.88;;;15.00;99.90;;;;;;4977432;28;20473;-78
2022/06/08 06:53:47;;;;;;;16.45;10.10;;;15.00;99.90;;;;;;4979916;28;20042;-78
2022/06/08 06:56:13;;;;;;;17.40;11.30;;;15.10;99.90;;;;;;4979026;28;20400;-78
2022/06/08 06:58:39;;;;;;;12.80;9.57;;;15.10;99.90;;;;;;4979383;28;20500;-78
2022/06/08 07:01:06;;;;;;;11.10;8.60;;;15.30;99.90;;;;;;4980280;28;20039;-77
2022/06/08 07:03:32;;;;;;;11.55;9.13;;;15.30;99.90;;;;;;4979635;28;20090;-77
2022/06/08 07:05:58;;;;;;;12.32;8.90;;;15.40;99.90;;;;;;4980554;28;20093;-77
2022/06/08 07:08:24;;;;;;;10.57;7.03;;;15.50;99.90;;;;;;4979956;28;20136;-77
2022/06/08 07:13:34;;;;;;;12.40;8.98;;;15.60;99.90;;;;;;4979489;28;20614;-77
2022/06/08 07:16:00;;;;;;;12.63;8.02;;;15.70;99.90;;;;;;4977607;28;20133;-77
2022/06/08 07:18:26;;;;;;;10.65;8.90;;;15.80;99.90;;;;;;4994463;28;20644;-77
2022/06/08 07:20:52;;;;;;;9.75;6.57;;;15.80;99.90;;;;;;4980046;28;20117;-77
2022/06/08 07:23:17;;;;;;;8.88;7.50;;;15.80;99.90;;;;;;4979836;28;20125;-77
2022/06/08 07:25:43;;;;;;;8.55;6.68;;;15.90;99.90;;;;;;4979620;28;20049;-77
2022/06/08 07:28:09;;;;;;;12.85;8.07;;;15.90;99.90;;;;;;4977068;28;20049;-77
2022/06/08 07:30:36;;;;;;;12.43;7.53;;;15.90;99.90;;;;;;4980155;28;20135;-76
2022/06/08 07:33:02;;;;;;;8.52;6.63;;;15.90;99.90;;;;;;4978946;28;20390;-76
2022/06/08 07:35:28;;;;;;;12.35;7.50;;;15.90;99.90;;;;;;4975846;28;20053;-75
2022/06/08 07:37:54;;;;;;;10.30;7.43;;;16.00;99.90;;;;;;4978856;28;20309;-76
2022/06/08 07:40:20;;;;;;;10.40;7.22;;;16.00;99.90;;;;;;4979894;28;20340;-75
2022/06/08 07:42:46;;;;;;;10.20;6.40;;;16.10;99.90;;;;;;4980925;28;20073;-75
2022/06/08 07:45:12;;;;;;;9.15;7.35;;;16.10;99.90;;;;;;4981104;28;20046;-76
2022/06/08 07:50:27;;;;;;;8.32;6.47;;;16.20;99.90;;;;;;4983083;28;20045;-75
2022/06/08 07:52:53;;;;;;;9.05;7.85;;;16.20;99.90;;;;;;4982182;28;20042;-76
2022/06/08 07:55:19;;;;;;;8.45;6.10;;;16.20;99.90;;;;;;4983082;28;20389;-75
2022/06/08 07:57:47;;;;;;;11.60;5.95;;;16.20;99.90;;;;;;4980682;28;20038;-76
2022/06/08 08:00:17;;;;;;;8.80;6.45;;;16.20;99.90;;;;;;4976382;28;20441;-77
2022/06/08 08:02:42;;;;;;;8.45;6.63;;;16.20;99.90;;;;;;4973551;28;20475;-77
2022/06/08 08:05:13;;;;;;;11.73;6.00;;;16.30;99.90;;;;;;4979055;28;20130;-75
2022/06/08 08:07:40;;;;;;;10.65;5.20;;;16.40;99.90;;;;;;4983663;28;20066;-76
2022/06/08 08:10:09;;;;;;;8.25;5.38;;;16.40;99.90;;;;;;4970990;28;20042;-75
2022/06/08 08:12:36;;;;;;;5.60;4.63;;;16.50;99.90;;;;;;4973224;28;20630;-75
2022/06/08 08:15:02;;;;;;;9.40;5.47;;;16.50;99.90;;;;;;4974937;28;20070;-75
2022/06/08 08:17:28;;;;;;;8.90;5.50;;;16.60;99.90;;;;;;4980583;28;20080;-75
2022/06/08 08:19:54;;;;;;;7.75;5.47;;;16.70;99.90;;;;;;4977012;28;20298;-76
2022/06/08 08:22:21;;;;;;;9.30;5.07;;;16.80;99.90;;;;;;4975469;28;20516;-76
2022/06/08 08:24:47;;;;;;;7.05;4.68;;;16.90;99.90;;;;;;4972670;28;20058;-75
2022/06/08 08:27:17;;;;;;;7.30;4.45;;;16.90;99.90;;;;;;4976641;28;20045;-75
2022/06/08 08:29:43;;;;;;;6.85;4.72;;;17.00;99.90;;;;;;4979524;28;20129;-75
2022/06/08 08:32:10;;;;;;;5.90;4.28;;;17.00;99.90;;;;;;4972361;28;20138;-81
2022/06/08 08:34:36;;;;;;;4.95;4.30;;;17.00;99.90;;;;;;4976305;28;20049;-76
2022/06/08 08:37:03;;;;;;;5.78;3.90;;;17.00;99.90;;;;;;4978098;28;20191;-84
2022/06/08 08:39:29;;;;;;;3.92;3.53;;;17.00;99.90;;;;;;4975159;28;20054;-77
2022/06/08 08:44:43;;;;;;;8.77;4.13;;;17.20;99.90;;;;;;4982418;28;20054;-82
2022/06/08 08:47:28;;;;;;;4.60;3.60;;;17.20;99.90;;;;;;4977406;28;20398;-80
2022/06/08 08:50:07;;;;;;;4.75;3.85;;;17.30;99.90;;;;;;4969460;28;20046;-84
2022/06/08 08:52:47;;;;;;;4.05;3.17;;;17.40;99.90;;;;;;4972490;28;20049;-77
2022/06/08 08:55:28;;;;;;;5.32;3.47;;;17.40;99.90;;;;;;4973069;28;20034;-76
2022/06/08 08:57:58;;;;;;;7.45;3.58;;;17.40;99.90;;;;;;4977449;28;20049;-77
2022/06/08 09:00:37;;;;;;;4.28;3.65;;;17.50;99.90;;;;;;4973445;28;20339;-77
2022/06/08 09:03:40;;;;;;;4.28;2.95;;;17.60;99.90;;;;;;4965945;28;20031;-81
2022/06/08 09:06:23;;;;;;;4.50;2.35;;;17.60;99.90;;;;;;4972067;28;20145;-85
2022/06/08 09:08:52;;;;;;;4.78;3.00;;;17.70;99.90;;;;;;4980524;28;20093;-82
2022/06/08 09:11:24;;;;;;;5.72;3.72;;;17.70;99.90;;;;;;4986301;28;20619;-86
2022/06/08 09:13:52;;;;;;;6.55;3.08;;;17.90;99.90;;;;;;4971116;28;20043;-82
2022/06/08 09:16:37;;;;;;;2.58;2.38;;;17.90;99.90;;;;;;4973157;28;20053;-82
2022/06/08 09:19:21;;;;;;;3.63;3.25;;;18.00;99.90;;;;;;4971129;28;20069;-86
2022/06/08 09:21:49;;;;;;;3.17;2.72;;;18.10;99.90;;;;;;4977006;28;20050;-84
2022/06/08 09:24:35;;;;;;;2.47;2.28;;;18.20;99.90;;;;;;4970665;28;20054;-84
2022/06/08 09:27:24;;;;;;;3.65;2.78;;;18.20;99.90;;;;;;4968473;28;20052;-81
2022/06/08 09:30:14;;;;;;;3.28;2.55;;;18.30;99.90;;;;;;4977569;28;20219;-79
2022/06/08 09:32:45;;;;;;;4.30;2.63;;;18.40;99.90;;;;;;4964808;28;20047;-79
2022/06/08 09:35:35;;;;;;;3.47;2.80;;;18.40;99.90;;;;;;4982001;28;20053;-79
2022/06/08 09:38:09;;;;;;;3.72;2.67;;;18.40;99.90;;;;;;4982358;28;20061;-81
2022/06/08 09:40:47;;;;;;;2.58;2.33;;;18.40;99.90;;;;;;4981378;28;20386;-79
2022/06/08 09:43:23;;;;;;;6.47;3.38;;;18.40;99.90;;;;;;4981383;28;20485;-79
2022/06/08 09:46:01;;;;;;;3.67;2.47;;;18.40;99.90;;;;;;4982468;28;20117;-79
2022/06/08 09:51:43;;;;;;;3.35;2.40;;;18.40;99.90;;;;;;4978206;28;20064;-79
2022/06/08 09:54:33;;;;;;;2.23;2.07;;;18.50;99.90;;;;;;4981379;28;20042;-78
2022/06/08 09:57:08;;;;;;;2.55;2.28;;;18.50;99.90;;;;;;4982956;28;20069;-78
2022/06/08 09:59:48;;;;;;;2.28;2.10;;;18.50;99.90;;;;;;4980172;28;20046;-79
2022/06/08 10:02:55;;;;;;;4.15;2.08;;;18.60;99.90;;;;;;4960880;28;20524;-79
2022/06/08 10:05:24;;;;;;;3.10;2.80;;;18.60;99.90;;;;;;4950616;28;20050;-80
2022/06/08 10:08:11;;;;;;;2.78;1.77;;;18.70;99.90;;;;;;4976154;28;20061;-80
2022/06/08 10:10:50;;;;;;;4.15;2.55;;;18.70;99.90;;;;;;4946188;28;20282;-77
2022/06/08 10:13:38;;;;;;;7.18;2.22;;;18.70;99.90;;;;;;4972762;28;20054;-77
2022/06/08 10:16:26;;;;;;;4.78;3.25;;;18.70;99.90;;;;;;4974263;28;20097;-78
2022/06/08 10:19:00;;;;;;;2.35;2.00;;;18.70;99.90;;;;;;4972020;28;20121;-76
2022/06/08 10:21:36;;;;;;;4.13;2.33;;;18.70;99.90;;;;;;4967806;28;20039;-76
2022/06/08 10:24:25;;;;;;;1.95;1.75;;;18.70;99.90;;;;;;4973123;28;20054;-77
2022/06/08 10:27:10;;;;;;;2.08;1.98;;;18.80;99.90;;;;;;4979147;28;20046;-77
2022/06/08 10:29:42;;;;;;;1.83;1.73;;;18.80;99.90;;;;;;4975992;28;20574;-77
2022/06/08 10:32:16;;;;;;;2.58;2.13;;;18.90;99.90;;;;;;4969191;28;20030;-76
2022/06/08 10:34:43;;;;;;;1.52;1.42;;;18.90;99.90;;;;;;4967911;28;20057;-77
2022/06/08 10:37:22;;;;;;;5.15;2.33;;;18.90;99.90;;;;;;4975457;28;20035;-77
2022/06/08 10:39:49;;;;;;;3.47;2.28;;;18.90;99.90;;;;;;4973101;28;20051;-77
2022/06/08 10:42:39;;;;;;;6.25;1.98;;;18.90;99.90;;;;;;4971443;28;20154;-76
2022/06/08 10:45:23;;;;;;;2.80;2.42;;;18.90;99.90;;;;;;4972687;28;20054;-77
2022/06/08 10:47:57;;;;;;;2.55;2.00;;;18.90;99.90;;;;;;4976393;28;20281;-77
2022/06/08 10:50:35;;;;;;;4.60;2.08;;;18.90;99.90;;;;;;4981531;28;20133;-77
2022/06/08 10:56:23;;;;;;;3.95;2.75;;;19.00;99.90;;;;;;4968938;28;20066;-76
2022/06/08 10:59:03;;;;;;;2.53;2.33;;;19.10;99.90;;;;;;4979511;28;20051;-76
2022/06/08 11:02:07;;;;;;;4.20;2.60;;;19.10;99.90;;;;;;4978919;28;20052;-76
2022/06/08 11:04:32;;;;;;;2.45;1.98;;;19.00;99.90;;;;;;4980240;28;20148;-76
2022/06/08 11:07:18;;;;;;;5.90;2.95;;;19.00;99.90;;;;;;4974797;28;20129;-76
2022/06/08 11:09:55;;;;;;;2.92;2.17;;;19.00;99.90;;;;;;4978990;28;20043;-77
2022/06/08 11:12:33;;;;;;;4.20;2.55;;;19.10;99.90;;;;;;4979837;28;20054;-76
2022/06/08 11:15:24;;;;;;;2.67;2.33;;;19.20;99.90;;;;;;4980970;28;20100;-76
2022/06/08 11:17:58;;;;;;;3.80;2.53;;;19.20;99.90;;;;;;4957980;28;20888;-76
2022/06/08 11:20:40;;;;;;;2.65;2.30;;;19.30;99.90;;;;;;4965173;28;20546;-76
2022/06/08 11:23:23;;;;;;;5.35;2.63;;;19.40;99.90;;;;;;4984019;28;20394;-76
2022/06/08 11:26:07;;;;;;;2.95;2.55;;;19.40;99.90;;;;;;4984030;28;20046;-76
2022/06/08 11:28:43;;;;;;;5.13;3.47;;;19.50;99.90;;;;;;4997803;28;20038;-76
2022/06/08 11:31:26;;;;;;;3.20;2.53;;;19.60;99.90;;;;;;4982371;28;20038;-76
2022/06/08 11:34:25;;;;;;;4.68;2.42;;;19.60;99.90;;;;;;4998679;28;20046;-76
2022/06/08 11:37:18;;;;;;;2.65;2.33;;;19.60;99.90;;;;;;4983156;28;20045;-76
2022/06/08 11:39:51;;;;;;;5.47;3.38;;;19.70;99.90;;;;;;4983771;28;20042;-76
2022/06/08 11:42:24;;;;;;;3.42;3.10;;;19.80;99.90;;;;;;4983434;28;20104;-76
2022/06/08 11:44:58;;;;;;;3.38;2.72;;;19.80;99.90;;;;;;4981997;28;20419;-76
2022/06/08 11:47:34;;;;;;;3.30;2.83;;;19.80;99.90;;;;;;4983332;28;20054;-76
2022/06/08 11:50:11;;;;;;;3.75;3.00;;;19.80;99.90;;;;;;4984196;28;20485;-76
2022/06/08 11:52:40;;;;;;;4.55;2.60;;;19.80;99.90;;;;;;4983775;28;20124;-76
2022/06/08 11:55:17;;;;;;;2.80;2.60;;;19.80;99.90;;;;;;4983029;28;20053;-76
2022/06/08 11:58:04;;;;;;;3.17;2.85;;;19.80;99.90;;;;;;4982764;28;20173;-75
2022/06/08 12:00:34;;;;;;;3.03;2.80;;;19.70;99.90;;;;;;4983766;28;20096;-76
2022/06/08 12:03:26;;;;;;;4.15;3.75;;;19.60;99.90;;;;;;4983305;28;20121;-76
2022/06/08 12:06:03;;;;;;;4.28;2.83;;;19.60;99.90;;;;;;4978762;28;20449;-76
2022/06/08 12:09:05;;;;;;;2.90;2.10;;;19.50;99.90;;;;;;4981534;28;20050;-76
2022/06/08 12:11:33;;;;;;;2.97;2.58;;;19.40;99.90;;;;;;4972971;28;20501;-77
2022/06/08 12:14:24;;;;;;;3.15;2.38;;;19.30;99.90;;;;;;4981444;28;20050;-76
2022/06/08 12:16:58;;;;;;;3.60;3.03;;;19.30;99.90;;;;;;4965430;28;20145;-76
2022/06/08 12:19:26;;;;;;;4.63;3.22;;;19.20;99.90;;;;;;4982565;28;20136;-76
2022/06/08 12:22:34;;;;;;;3.85;3.38;;;19.20;99.90;;;;;;4982253;28;20141;-76
2022/06/08 12:25:09;;;;;;;3.92;2.90;;;19.20;99.90;;;;;;4944955;28;20042;-77
2022/06/08 12:27:46;;;;;;;3.75;3.38;;;19.20;99.90;;;;;;4960061;28;20397;-76
2022/06/08 12:30:23;;;;;;;6.55;5.45;;;19.20;99.90;;;;;;4973576;28;20452;-76
2022/06/08 12:32:55;;;;;;;7.25;5.38;;;19.20;99.90;;;;;;4981741;28;20475;-76
2022/06/08 12:35:33;;;;;;;5.85;5.32;;;19.20;99.90;;;;;;4980141;28;20911;-76
2022/06/08 12:38:22;;;;;;;7.80;5.82;;;19.30;99.90;;;;;;4981599;28;20054;-76
2022/06/08 12:40:57;;;;;;;7.85;6.18;;;19.30;99.90;;;;;;4981408;28;20053;-76
2022/06/08 12:43:22;;;;;;;7.53;6.40;;;19.30;99.90;;;;;;4979935;28;20401;-76
2022/06/08 12:46:17;;;;;;;10.93;6.47;;;19.30;99.90;;;;;;4982612;28;20038;-76
2022/06/08 12:48:43;;;;;;;3.60;3.20;;;19.30;99.90;;;;;;4945876;28;20057;-76
2022/06/08 12:51:32;;;;;;;3.67;3.38;;;19.10;99.90;;;;;;4962413;28;20061;-76
2022/06/08 12:54:00;;;;;;;8.55;4.15;;;19.00;99.90;;;;;;4963456;28;20412;-76
2022/06/08 12:56:26;;;;;;;3.97;3.63;;;18.80;99.90;;;;;;4961813;28;20039;-76
2022/06/08 12:58:53;;;;;;;2.38;1.95;;;18.70;99.90;;;;;;4960906;28;20043;-75
2022/06/08 13:01:20;;;;;;;1.92;1.70;;;18.60;99.90;;;;;;4962033;28;20094;-76
2022/06/08 13:03:46;;;;;;;7.80;1.92;;;18.50;99.90;;;;;;4977358;28;20046;-76
2022/06/08 13:06:12;;;;;;;1.48;1.27;;;18.30;99.90;;;;;;4961035;28;20497;-76
2022/06/08 13:08:39;;;;;;;2.97;1.38;;;18.20;99.90;;;;;;4945002;28;20097;-76
2022/06/08 13:11:10;;;;;;;2.58;1.60;;;18.10;99.90;;;;;;4962041;28;20133;-76
2022/06/08 13:13:36;;;;;;;1.95;1.65;;;18.10;99.90;;;;;;4961401;28;20074;-76
2022/06/08 13:16:11;;;;;;;1.80;1.70;;;18.00;99.90;;;;;;4944624;28;20042;-76
2022/06/08 13:18:37;;;;;;;4.25;2.00;;;17.90;99.90;;;;;;4974896;28;20042;-76
2022/06/08 13:21:07;;;;;;;1.63;1.52;;;17.90;99.90;;;;;;4981491;28;20327;-76
2022/06/08 13:23:33;;;;;;;1.52;1.42;;;17.90;99.90;;;;;;4981720;28;20069;-76
2022/06/08 13:25:59;;;;;;;2.03;1.73;;;18.00;99.90;;;;;;4980462;28;20644;-75